Time;durP1;ratioP1;P1;durP2;ratioP2;P2;SDS_P1;SDS_P2;PMS_P1;PMS_P2;Temp;Humidity;BMP_temperature;BMP_pressure;BME280_temperature;BME280_humidity;BME280_pressure;Samples;Min_cycle;Max_cycle;Signal;HPM_P1;HPM_P2
2024/04/16 00:01:06;;;;;;;16.27;8.57;;;5.60;99.90;;;;;;5385578;26;19988;-69
2024/04/16 00:03:32;;;;;;;17.55;9.05;;;5.60;99.90;;;;;;5385337;26;19996;-69
2024/04/16 00:05:58;;;;;;;23.30;8.63;;;5.60;99.90;;;;;;5385649;26;19996;-69
2024/04/16 00:08:24;;;;;;;25.48;8.85;;;5.60;99.90;;;;;;5383857;26;19996;-68
2024/04/16 00:10:49;;;;;;;15.65;8.48;;;5.60;99.90;;;;;;5385310;26;19992;-69
2024/04/16 00:13:15;;;;;;;17.30;7.72;;;5.60;99.90;;;;;;5385403;26;19996;-69
2024/04/16 00:15:40;;;;;;;17.02;7.22;;;5.70;99.90;;;;;;5385462;26;19993;-68
2024/04/16 00:18:06;;;;;;;21.02;6.70;;;5.70;99.90;;;;;;5385464;26;19992;-69
2024/04/16 00:20:31;;;;;;;15.40;6.32;;;5.70;99.90;;;;;;5385129;26;20007;-69
2024/04/16 00:22:57;;;;;;;15.05;6.03;;;5.80;99.90;;;;;;5385638;26;20032;-68
2024/04/16 00:25:23;;;;;;;19.63;6.05;;;;;;;;;;5385378;26;20422;-68
2024/04/16 00:27:48;;;;;;;16.60;5.38;;;5.80;99.90;;;;;;5385473;26;20392;-68
2024/04/16 00:30:14;;;;;;;11.65;5.00;;;5.80;99.90;;;;;;5383690;26;20020;-68
2024/04/16 00:32:40;;;;;;;20.02;5.13;;;5.80;99.90;;;;;;5385288;26;19988;-69
2024/04/16 00:35:06;;;;;;;14.60;5.28;;;5.80;99.90;;;;;;5385217;26;19996;-68
2024/04/16 00:37:31;;;;;;;19.73;5.03;;;5.70;99.90;;;;;;5385061;26;20072;-68
2024/04/16 00:39:57;;;;;;;17.42;4.82;;;5.70;99.90;;;;;;5385375;26;20007;-68
2024/04/16 00:42:22;;;;;;;13.45;4.43;;;5.70;99.90;;;;;;5384882;26;19996;-68
2024/04/16 00:44:48;;;;;;;13.60;4.55;;;5.80;99.90;;;;;;5385058;26;20065;-68
2024/04/16 00:47:16;;;;;;;13.15;4.40;;;5.80;99.90;;;;;;5385050;26;19992;-68
2024/04/16 00:49:43;;;;;;;14.82;4.10;;;5.80;99.90;;;;;;5384982;26;19996;-68
2024/04/16 00:52:09;;;;;;;15.32;4.63;;;5.70;99.90;;;;;;5384913;26;20342;-68
2024/04/16 00:54:35;;;;;;;13.38;3.95;;;5.70;99.90;;;;;;5384769;26;20000;-69
2024/04/16 00:57:01;;;;;;;10.10;4.10;;;5.60;99.90;;;;;;5385033;26;19992;-68
2024/04/16 00:59:27;;;;;;;15.25;4.18;;;5.60;99.90;;;;;;5384138;26;19992;-68
2024/04/16 01:01:54;;;;;;;13.02;3.40;;;5.70;99.90;;;;;;5384491;26;20091;-68
2024/04/16 01:04:20;;;;;;;13.77;4.32;;;5.70;99.90;;;;;;5384427;26;20028;-68
2024/04/16 01:06:46;;;;;;;16.85;4.25;;;5.60;99.90;;;;;;5384577;26;19999;-68
2024/04/16 01:09:13;;;;;;;11.80;3.80;;;5.70;99.90;;;;;;5384198;26;19988;-68
2024/04/16 01:11:39;;;;;;;10.65;2.97;;;5.70;99.90;;;;;;5384330;26;20046;-67
2024/04/16 01:14:05;;;;;;;11.38;3.05;;;5.70;99.90;;;;;;5384336;26;20026;-68
2024/04/16 01:16:30;;;;;;;12.52;3.70;;;5.70;99.90;;;;;;5384151;26;19999;-68
2024/04/16 01:18:56;;;;;;;13.48;3.22;;;5.70;99.90;;;;;;5384220;26;20003;-68
2024/04/16 01:21:22;;;;;;;16.80;4.05;;;5.70;99.90;;;;;;5384248;26;19992;-68
2024/04/16 01:23:47;;;;;;;8.85;3.28;;;5.80;99.90;;;;;;5384240;26;20323;-68
2024/04/16 01:26:13;;;;;;;20.50;4.35;;;5.80;99.90;;;;;;5384210;26;19988;-67
2024/04/16 01:28:38;;;;;;;12.63;3.60;;;5.80;99.90;;;;;;5384152;26;20007;-68
2024/04/16 01:31:04;;;;;;;18.00;4.05;;;5.80;99.90;;;;;;5384088;26;20000;-69
2024/04/16 01:33:29;;;;;;;11.18;3.53;;;5.80;99.90;;;;;;5383863;26;19988;-68
2024/04/16 01:35:55;;;;;;;11.50;3.70;;;5.80;99.90;;;;;;5383996;26;19992;-68
2024/04/16 01:38:20;;;;;;;8.98;2.83;;;5.90;99.90;;;;;;5383940;26;20000;-68
2024/04/16 01:40:46;;;;;;;8.10;2.90;;;5.90;99.90;;;;;;5384178;26;19996;-68
2024/04/16 01:43:11;;;;;;;11.27;2.95;;;5.90;99.90;;;;;;5383808;26;19993;-67
2024/04/16 01:45:37;;;;;;;9.68;3.20;;;5.90;99.90;;;;;;5383820;26;19992;-68
2024/04/16 01:48:03;;;;;;;13.30;3.40;;;5.90;98.00;;;;;;5383870;26;19996;-68
2024/04/16 01:50:29;;;;;;;11.43;3.22;;;5.90;99.70;;;;;;5383693;26;20004;-68
2024/04/16 01:52:54;;;;;;;12.25;3.47;;;5.80;98.00;;;;;;5381917;26;19988;-68
2024/04/16 01:55:20;;;;;;;8.00;2.38;;;5.80;98.20;;;;;;5383493;26;20044;-68
2024/04/16 01:57:45;;;;;;;10.32;2.92;;;5.80;99.10;;;;;;5383373;26;20007;-68
2024/04/16 02:00:11;;;;;;;8.18;2.63;;;5.80;99.90;;;;;;5383741;26;20003;-68
2024/04/16 02:02:37;;;;;;;10.00;2.50;;;5.90;99.90;;;;;;5383823;26;20000;-68
2024/04/16 02:05:03;;;;;;;9.75;2.55;;;5.80;98.70;;;;;;5383414;26;20322;-67
2024/04/16 02:07:30;;;;;;;9.68;2.53;;;5.80;99.90;;;;;;5383519;26;20340;-68
2024/04/16 02:09:56;;;;;;;9.00;2.47;;;5.80;96.40;;;;;;5383645;26;20458;-68
2024/04/16 02:12:21;;;;;;;10.05;2.60;;;5.80;93.70;;;;;;5383789;26;20007;-68
2024/04/16 02:14:47;;;;;;;8.38;3.22;;;5.70;95.50;;;;;;5383274;26;20006;-68
2024/04/16 02:17:13;;;;;;;12.60;3.60;;;5.60;80.30;;;;;;5383266;26;20331;-68
2024/04/16 02:19:40;;;;;;;13.02;2.60;;;5.60;79.70;;;;;;5383366;26;20057;-68
2024/04/16 02:22:05;;;;;;;12.05;2.63;;;5.60;75.70;;;;;;5382654;26;20000;-68
2024/04/16 02:24:31;;;;;;;7.68;2.33;;;5.60;72.80;;;;;;5383416;26;20003;-68
2024/04/16 02:26:56;;;;;;;6.40;2.13;;;5.60;63.80;;;;;;5383129;26;20066;-68
2024/04/16 02:29:22;;;;;;;11.88;3.25;;;5.60;60.60;;;;;;5383298;26;19996;-68
2024/04/16 02:31:47;;;;;;;8.98;2.88;;;5.60;55.20;;;;;;5383174;26;20066;-68
2024/04/16 02:34:13;;;;;;;10.38;2.47;;;5.60;47.90;;;;;;5383194;26;20065;-68
2024/04/16 02:36:38;;;;;;;9.02;2.20;;;5.60;51.60;;;;;;5382912;26;19992;-68
2024/04/16 02:39:04;;;;;;;9.23;2.50;;;5.60;56.80;;;;;;5383202;26;20004;-68
2024/04/16 02:41:30;;;;;;;11.75;2.65;;;5.60;57.40;;;;;;5383164;26;19996;-68
2024/04/16 02:43:56;;;;;;;10.60;2.90;;;5.60;55.80;;;;;;5383189;26;20057;-68
2024/04/16 02:46:22;;;;;;;11.65;3.00;;;5.70;42.70;;;;;;5383305;26;20004;-68
2024/04/16 02:48:48;;;;;;;8.15;2.33;;;5.70;42.20;;;;;;5382896;26;19992;-68
2024/04/16 02:51:14;;;;;;;6.55;2.80;;;5.70;48.10;;;;;;5382995;26;20381;-68
2024/04/16 02:53:40;;;;;;;8.02;2.50;;;5.60;43.50;;;;;;5383044;26;20003;-68
2024/04/16 02:56:06;;;;;;;7.95;3.03;;;5.60;43.90;;;;;;5382939;26;19996;-68
2024/04/16 02:58:32;;;;;;;7.85;2.20;;;5.70;35.00;;;;;;5382999;26;19988;-68
2024/04/16 03:00:57;;;;;;;3.97;2.15;;;5.70;30.60;;;;;;5383012;26;20338;-68
2024/04/16 03:03:23;;;;;;;9.75;2.15;;;5.70;30.00;;;;;;5383283;26;20326;-67
2024/04/16 03:05:56;;;;;;;9.65;2.42;;;5.60;33.10;;;;;;5382814;26;20007;-67
2024/04/16 03:08:21;;;;;;;10.02;2.92;;;5.60;36.70;;;;;;5382709;26;20007;-67
2024/04/16 03:10:47;;;;;;;8.80;2.65;;;5.60;34.10;;;;;;5382589;26;20004;-67
2024/04/16 03:13:12;;;;;;;11.80;2.70;;;5.50;43.00;;;;;;5382660;26;19992;-67
2024/04/16 03:15:38;;;;;;;15.85;4.25;;;5.50;38.80;;;;;;5382588;26;20409;-67
2024/04/16 03:18:04;;;;;;;10.25;2.92;;;5.50;36.90;;;;;;5382639;26;20308;-68
2024/04/16 03:20:30;;;;;;;9.73;3.10;;;5.50;38.90;;;;;;5382879;26;19996;-68
2024/04/16 03:22:55;;;;;;;12.13;2.83;;;5.50;36.80;;;;;;5382760;26;20007;-68
2024/04/16 03:25:23;;;;;;;7.18;2.58;;;5.60;32.20;;;;;;5382691;26;20453;-68
2024/04/16 03:27:49;;;;;;;8.23;2.70;;;5.60;29.70;;;;;;5382612;26;20016;-68
2024/04/16 03:30:15;;;;;;;10.85;2.55;;;5.60;31.00;;;;;;5382660;26;19992;-68
2024/04/16 03:32:40;;;;;;;9.55;2.85;;;5.70;28.70;;;;;;5382739;26;20434;-66
2024/04/16 03:35:07;;;;;;;7.18;2.05;;;5.70;27.30;;;;;;5381160;26;19995;-69
2024/04/16 03:37:33;;;;;;;6.38;2.92;;;5.70;31.20;;;;;;5382465;26;20447;-68
2024/04/16 03:39:58;;;;;;;6.30;2.72;;;5.80;24.70;;;;;;5382397;26;19992;-69
2024/04/16 03:42:24;;;;;;;8.75;2.55;;;5.80;26.00;;;;;;5382535;26;19996;-66
2024/04/16 03:44:54;;;;;;;19.60;3.30;;;5.80;23.40;;;;;;5382553;26;19992;-69
2024/04/16 03:47:20;;;;;;;7.82;2.50;;;5.80;23.30;;;;;;5382919;26;19999;-69
2024/04/16 03:49:46;;;;;;;12.07;3.28;;;5.80;25.80;;;;;;5382454;26;20000;-69
2024/04/16 03:52:12;;;;;;;8.82;2.80;;;5.80;34.30;;;;;;5382588;26;20066;-69
2024/04/16 03:54:37;;;;;;;13.15;3.40;;;5.80;32.40;;;;;;5382252;26;20039;-69
2024/04/16 03:57:03;;;;;;;9.23;3.20;;;5.80;38.00;;;;;;5382654;26;19996;-69
2024/04/16 04:02:19;;;;;;;14.23;4.35;;;5.80;23.00;;;;;;5381596;26;20007;-69
2024/04/16 04:04:45;;;;;;;10.63;4.05;;;5.80;32.90;;;;;;5381829;26;20122;-67
2024/04/16 04:07:11;;;;;;;8.82;4.20;;;5.80;34.30;;;;;;5382136;26;20038;-67
2024/04/16 04:09:36;;;;;;;8.05;3.67;;;5.70;32.00;;;;;;5381669;26;19996;-67
2024/04/16 04:12:02;;;;;;;8.20;4.30;;;5.70;37.30;;;;;;5381772;26;20061;-67
2024/04/16 04:14:28;;;;;;;12.70;4.25;;;5.60;42.60;;;;;;5381628;26;20004;-68
2024/04/16 04:16:53;;;;;;;10.85;5.43;;;5.60;45.80;;;;;;5381416;26;20057;-67
2024/04/16 04:19:19;;;;;;;12.15;4.78;;;5.50;52.10;;;;;;5381520;26;20066;-67
2024/04/16 04:21:44;;;;;;;6.55;4.43;;;5.50;58.60;;;;;;5381299;26;20069;-67
2024/04/16 04:24:16;;;;;;;7.53;4.70;;;5.40;60.00;;;;;;5381537;26;20007;-68
2024/04/16 04:26:42;;;;;;;10.05;5.15;;;5.30;62.80;;;;;;5381468;26;20004;-67
2024/04/16 04:29:08;;;;;;;7.40;4.32;;;5.30;76.10;;;;;;5381253;26;19993;-68
2024/04/16 04:31:33;;;;;;;10.05;4.43;;;5.30;85.70;;;;;;5381387;26;20446;-67
2024/04/16 04:33:59;;;;;;;9.80;3.92;;;5.30;87.60;;;;;;5381393;26;19996;-67
2024/04/16 04:36:24;;;;;;;4.97;3.85;;;5.30;83.00;;;;;;5381247;26;19993;-64
2024/04/16 04:38:50;;;;;;;8.77;3.90;;;5.30;85.00;;;;;;5381043;26;20362;-66
2024/04/16 04:41:15;;;;;;;6.22;3.67;;;5.30;84.10;;;;;;5381425;26;20000;-66
2024/04/16 04:43:41;;;;;;;11.95;4.50;;;5.30;84.60;;;;;;5380998;26;19996;-66
2024/04/16 04:46:06;;;;;;;5.43;3.65;;;5.30;85.00;;;;;;5383379;26;20341;-65
2024/04/16 04:48:32;;;;;;;9.40;4.10;;;5.30;86.30;;;;;;5384656;26;19988;-66
2024/04/16 04:50:58;;;;;;;6.97;3.60;;;5.30;90.90;;;;;;5384849;26;19992;-66
2024/04/16 04:53:23;;;;;;;6.25;3.90;;;5.30;97.10;;;;;;5384611;26;20000;-65
2024/04/16 04:55:49;;;;;;;12.38;4.43;;;5.30;97.60;;;;;;5384586;26;19996;-65
2024/04/16 04:58:14;;;;;;;9.93;5.07;;;5.30;99.90;;;;;;5384402;26;19992;-66
2024/04/16 05:00:40;;;;;;;10.55;4.95;;;5.30;99.90;;;;;;5384463;26;20011;-66
2024/04/16 05:03:06;;;;;;;14.57;5.32;;;5.30;99.90;;;;;;5384603;26;19999;-65
2024/04/16 05:05:32;;;;;;;8.30;4.78;;;5.30;99.90;;;;;;5384318;26;19992;-66
2024/04/16 05:07:57;;;;;;;11.77;5.28;;;5.40;99.90;;;;;;5384262;26;20453;-65
2024/04/16 05:10:24;;;;;;;12.65;5.53;;;5.40;99.90;;;;;;5384670;26;19999;-66
2024/04/16 05:12:50;;;;;;;14.75;5.38;;;5.40;99.90;;;;;;5384610;26;20338;-66
2024/04/16 05:15:17;;;;;;;15.25;5.30;;;5.50;99.90;;;;;;5384156;26;19988;-66
2024/04/16 05:17:42;;;;;;;12.57;5.13;;;5.50;99.90;;;;;;5383921;26;20065;-65
2024/04/16 05:20:08;;;;;;;18.15;5.53;;;5.60;99.90;;;;;;5384789;26;19996;-66
2024/04/16 05:22:34;;;;;;;11.27;5.43;;;5.60;99.90;;;;;;5384293;26;20003;-66
2024/04/16 05:25:00;;;;;;;14.15;5.85;;;5.60;99.90;;;;;;5384412;26;19992;-66
2024/04/16 05:27:25;;;;;;;17.33;6.05;;;5.70;99.90;;;;;;5384394;26;20003;-66
2024/04/16 05:29:51;;;;;;;13.48;5.93;;;5.70;99.90;;;;;;5384393;26;20003;-65
2024/04/16 05:32:16;;;;;;;11.60;5.80;;;5.80;99.10;;;;;;5384584;26;20359;-65
2024/04/16 05:34:42;;;;;;;11.77;6.40;;;5.80;99.90;;;;;;5384814;26;20005;-66
2024/04/16 05:37:08;;;;;;;18.63;7.15;;;5.80;99.90;;;;;;5384531;26;20008;-65
2024/04/16 05:39:33;;;;;;;13.57;6.40;;;5.80;99.90;;;;;;5383881;26;20070;-66
2024/04/16 05:41:59;;;;;;;14.68;6.53;;;5.70;98.80;;;;;;5383603;26;19996;-68
2024/04/16 05:44:24;;;;;;;8.70;6.22;;;5.70;98.80;;;;;;5383504;26;20465;-66
2024/04/16 05:46:50;;;;;;;13.38;6.97;;;5.70;99.90;;;;;;5383400;26;20003;-66
2024/04/16 05:49:15;;;;;;;17.75;8.30;;;5.70;99.90;;;;;;5383416;26;19993;-66
2024/04/16 05:51:41;;;;;;;14.23;7.97;;;5.80;99.90;;;;;;5383510;26;19992;-65
2024/04/16 05:54:07;;;;;;;11.90;7.60;;;5.90;99.90;;;;;;5383410;26;20003;-66
2024/04/16 05:56:36;;;;;;;14.23;7.45;;;5.80;99.90;;;;;;5382986;26;19988;-66
2024/04/16 05:59:02;;;;;;;12.85;6.70;;;5.90;99.90;;;;;;5381301;26;20335;-65
2024/04/16 06:01:28;;;;;;;14.93;6.90;;;5.90;99.90;;;;;;5383628;26;20004;-66
2024/04/16 06:03:54;;;;;;;8.10;5.10;;;6.50;99.10;;;;;;5383458;26;20442;-66
2024/04/16 06:06:19;;;;;;;6.13;4.35;;;6.60;55.40;;;;;;5383153;26;20004;-66
2024/04/16 06:08:45;;;;;;;9.82;4.28;;;6.60;56.80;;;;;;5383160;26;20007;-66
2024/04/16 06:11:10;;;;;;;9.57;4.00;;;6.70;47.50;;;;;;5383542;26;19992;-66
2024/04/16 06:13:36;;;;;;;7.45;3.97;;;7.40;20.50;;;;;;5383627;26;20448;-66
2024/04/16 06:16:01;;;;;;;7.78;3.55;;;7.60;1.00;;;;;;5383113;26;20003;-66
2024/04/16 06:18:28;;;;;;;9.52;3.83;;;7.90;1.00;;;;;;5383461;26;20061;-67
2024/04/16 06:20:54;;;;;;;6.03;3.20;;;8.50;1.00;;;;;;5388457;26;20077;-66
2024/04/16 06:23:21;;;;;;;8.18;3.65;;;8.10;1.00;;;;;;5418936;26;19995;-66
2024/04/16 06:25:47;;;;;;;7.28;3.70;;;8.00;1.00;;;;;;5381153;26;20004;-67
2024/04/16 06:28:12;;;;;;;10.95;4.00;;;7.90;1.00;;;;;;5360770;26;20012;-66
2024/04/16 06:30:38;;;;;;;11.10;3.80;;;7.70;1.00;;;;;;5372644;26;20008;-66
2024/04/16 06:33:04;;;;;;;10.05;4.35;;;7.80;1.00;;;;;;5369110;26;20065;-66
2024/04/16 06:35:29;;;;;;;11.52;4.18;;;7.70;1.00;;;;;;5356164;26;19997;-67
2024/04/16 06:37:55;;;;;;;8.18;3.83;;;7.50;1.00;;;;;;5373382;26;19997;-65
2024/04/16 06:40:21;;;;;;;10.43;3.75;;;7.10;1.00;;;;;;5347524;26;20004;-65
2024/04/16 06:42:49;;;;;;;7.03;3.30;;;7.10;10.20;;;;;;5370656;26;20019;-66
2024/04/16 06:45:15;;;;;;;10.25;3.88;;;7.10;17.30;;;;;;5376035;26;20060;-67
2024/04/16 06:47:40;;;;;;;12.25;4.63;;;6.90;26.70;;;;;;5372885;26;19992;-66
2024/04/16 06:50:06;;;;;;;10.77;4.05;;;6.80;59.70;;;;;;5374965;26;20005;-66
2024/04/16 06:52:32;;;;;;;11.48;4.82;;;6.70;60.00;;;;;;5370576;26;20300;-66
2024/04/16 06:54:58;;;;;;;11.60;4.05;;;6.70;76.40;;;;;;5370096;26;20013;-66
2024/04/16 06:57:25;;;;;;;10.32;4.18;;;6.60;84.90;;;;;;5364497;26;20088;-67
2024/04/16 06:59:50;;;;;;;9.57;4.35;;;6.50;93.60;;;;;;5350297;26;20455;-67
2024/04/16 07:02:16;;;;;;;13.38;4.40;;;6.50;99.20;;;;;;5355443;26;20008;-65
2024/04/16 07:04:41;;;;;;;6.60;3.70;;;6.40;98.50;;;;;;5365338;26;20017;-65
2024/04/16 07:07:07;;;;;;;18.20;6.25;;;6.50;99.90;;;;;;5354945;26;20012;-65
2024/04/16 07:09:33;;;;;;;9.38;5.20;;;6.50;99.90;;;;;;5353053;26;20092;-66
2024/04/16 07:11:58;;;;;;;15.15;4.72;;;6.40;99.90;;;;;;5359539;26;19989;-66
2024/04/16 07:14:24;;;;;;;9.60;4.43;;;6.50;99.90;;;;;;5347413;26;19996;-67
2024/04/16 07:16:49;;;;;;;10.48;3.80;;;6.40;99.90;;;;;;5353321;26;20008;-67
2024/04/16 07:19:15;;;;;;;10.15;4.05;;;6.40;99.90;;;;;;5360682;26;20009;-67
2024/04/16 07:21:40;;;;;;;10.05;3.60;;;6.40;99.90;;;;;;5347931;26;20074;-67
2024/04/16 07:24:06;;;;;;;11.07;3.72;;;6.30;99.90;;;;;;5361048;26;20012;-67
2024/04/16 07:26:31;;;;;;;6.13;2.90;;;6.10;99.90;;;;;;5349067;26;20008;-67
2024/04/16 07:28:57;;;;;;;7.97;3.38;;;6.00;99.90;;;;;;5353879;26;19999;-67
2024/04/16 07:31:22;;;;;;;9.13;3.03;;;6.00;99.90;;;;;;5360380;26;20011;-67
2024/04/16 07:33:48;;;;;;;6.25;2.92;;;5.70;99.90;;;;;;5357948;26;20009;-67
2024/04/16 07:36:13;;;;;;;6.80;2.50;;;5.60;99.90;;;;;;5368230;26;20014;-67
2024/04/16 07:38:39;;;;;;;4.38;2.25;;;5.60;99.90;;;;;;5363350;26;20400;-67
2024/04/16 07:41:05;;;;;;;5.40;1.70;;;5.40;99.90;;;;;;5357321;26;19993;-67
2024/04/16 07:43:31;;;;;;;7.80;2.10;;;5.30;99.90;;;;;;5360650;26;20015;-65
2024/04/16 07:45:57;;;;;;;7.57;1.80;;;5.30;99.90;;;;;;5363362;26;20446;-66
2024/04/16 07:48:22;;;;;;;2.67;1.90;;;5.30;99.90;;;;;;5360014;26;20004;-66
2024/04/16 07:50:48;;;;;;;5.45;2.13;;;5.30;99.90;;;;;;5365500;26;20005;-66
2024/04/16 07:53:14;;;;;;;5.95;2.13;;;5.20;99.90;;;;;;5362018;26;20008;-66
2024/04/16 07:55:40;;;;;;;4.40;1.92;;;5.20;99.90;;;;;;5373768;26;20032;-67
2024/04/16 07:58:06;;;;;;;5.40;2.65;;;5.10;99.90;;;;;;5358018;26;20048;-65
2024/04/16 08:00:31;;;;;;;3.00;2.45;;;5.20;99.90;;;;;;5359730;26;19996;-66
2024/04/16 08:02:57;;;;;;;5.30;2.47;;;5.20;99.90;;;;;;5356209;26;20012;-66
2024/04/16 08:05:23;;;;;;;6.00;2.45;;;5.20;99.90;;;;;;5347471;26;20172;-66
2024/04/16 08:07:49;;;;;;;5.60;3.00;;;5.20;99.90;;;;;;5353409;26;20016;-68
2024/04/16 08:10:14;;;;;;;8.65;2.90;;;5.30;99.90;;;;;;5369036;26;20005;-67
2024/04/16 08:12:40;;;;;;;4.05;2.05;;;5.30;99.90;;;;;;5368268;26;20001;-68
2024/04/16 08:15:06;;;;;;;2.88;1.88;;;5.20;99.90;;;;;;5381036;26;20069;-67
2024/04/16 08:17:32;;;;;;;4.70;2.63;;;5.20;99.90;;;;;;5379934;26;20000;-67
2024/04/16 08:20:00;;;;;;;2.70;1.60;;;5.20;99.90;;;;;;5373725;26;19997;-66
2024/04/16 08:22:29;;;;;;;2.50;1.65;;;5.20;99.90;;;;;;5365189;26;20000;-65
2024/04/16 08:24:54;;;;;;;5.28;2.05;;;5.20;99.90;;;;;;5354440;26;20012;-67
2024/04/16 08:27:22;;;;;;;3.45;1.77;;;5.20;99.90;;;;;;5363603;26;20000;-66
2024/04/16 08:29:49;;;;;;;2.65;1.90;;;5.10;99.90;;;;;;5382565;26;20008;-66
2024/04/16 08:32:15;;;;;;;3.72;1.85;;;5.10;99.90;;;;;;5373895;26;20019;-65
2024/04/16 08:34:41;;;;;;;4.43;1.48;;;5.10;99.90;;;;;;5356071;26;20004;-65
2024/04/16 08:37:07;;;;;;;2.95;1.85;;;5.20;99.90;;;;;;5376805;26;20071;-65
2024/04/16 08:39:34;;;;;;;3.60;1.80;;;5.20;99.90;;;;;;5362707;26;20000;-65
2024/04/16 08:42:00;;;;;;;3.10;1.83;;;5.10;99.90;;;;;;5360435;26;20043;-68
2024/04/16 08:44:27;;;;;;;5.68;1.98;;;5.20;99.90;;;;;;5356850;26;20001;-67
2024/04/16 08:46:59;;;;;;;6.32;1.90;;;5.20;99.90;;;;;;5379284;26;20040;-66
2024/04/16 08:49:30;;;;;;;3.28;2.33;;;5.20;99.90;;;;;;5377900;26;20001;-66
2024/04/16 08:51:56;;;;;;;2.90;2.33;;;5.30;99.90;;;;;;5378245;26;20000;-66
2024/04/16 08:54:23;;;;;;;2.78;2.33;;;5.30;99.90;;;;;;5384330;26;20004;-67
2024/04/16 08:56:50;;;;;;;5.30;2.42;;;5.30;99.90;;;;;;5379001;26;20016;-68
2024/04/16 08:59:16;;;;;;;7.00;3.03;;;5.50;99.90;;;;;;5382412;26;20001;-68
2024/04/16 09:01:46;;;;;;;6.28;3.42;;;5.50;99.90;;;;;;5373964;26;20009;-67
2024/04/16 09:04:15;;;;;;;5.65;3.65;;;5.60;99.90;;;;;;5371011;26;20339;-66
2024/04/16 09:06:43;;;;;;;6.97;4.15;;;5.70;99.90;;;;;;5355233;26;20008;-66
2024/04/16 09:09:09;;;;;;;6.32;4.47;;;5.90;99.90;;;;;;5379331;26;20005;-68
2024/04/16 09:11:34;;;;;;;9.43;5.03;;;5.90;99.90;;;;;;5362280;26;20007;-67
2024/04/16 09:14:00;;;;;;;8.93;5.50;;;5.90;99.90;;;;;;5366013;26;20039;-66
2024/04/16 09:16:26;;;;;;;7.95;5.82;;;6.00;99.90;;;;;;5363692;26;20000;-68
2024/04/16 09:18:55;;;;;;;11.65;7.25;;;6.00;99.90;;;;;;5376678;26;20438;-67
2024/04/16 09:21:20;;;;;;;13.43;7.57;;;6.10;99.90;;;;;;5389669;26;20118;-66
2024/04/16 09:23:54;;;;;;;18.10;10.23;;;6.20;99.90;;;;;;5405910;26;20016;-66
2024/04/16 09:26:20;;;;;;;18.70;11.98;;;6.50;99.90;;;;;;5361034;26;20004;-66
2024/04/16 09:28:48;;;;;;;20.17;12.60;;;6.80;99.90;;;;;;5361108;26;20019;-67
2024/04/16 09:31:15;;;;;;;17.30;11.38;;;7.00;99.90;;;;;;5367769;26;20012;-66
2024/04/16 09:33:41;;;;;;;23.67;12.52;;;7.30;99.90;;;;;;5359249;26;20014;-66
2024/04/16 09:36:12;;;;;;;16.23;10.90;;;7.60;99.90;;;;;;5359212;26;20001;-65
2024/04/16 09:38:46;;;;;;;20.70;12.27;;;7.70;99.90;;;;;;5378092;26;20019;-66
2024/04/16 09:41:13;;;;;;;17.75;11.88;;;7.80;99.90;;;;;;5351395;26;20001;-67
2024/04/16 09:43:42;;;;;;;19.38;11.70;;;7.70;99.90;;;;;;5382036;26;20458;-69
2024/04/16 09:46:10;;;;;;;16.83;11.00;;;7.70;99.90;;;;;;5366121;26;20059;-67
2024/04/16 09:48:38;;;;;;;16.10;11.25;;;7.60;99.90;;;;;;5364890;26;20462;-68
2024/04/16 09:51:05;;;;;;;21.50;10.13;;;7.60;99.90;;;;;;5383511;26;20500;-67
2024/04/16 09:53:34;;;;;;;18.33;11.77;;;7.60;99.90;;;;;;5386837;26;20032;-67
2024/04/16 09:56:04;;;;;;;16.40;9.63;;;7.60;99.90;;;;;;5359620;26;20030;-67
2024/04/16 09:58:32;;;;;;;14.52;9.05;;;7.60;99.90;;;;;;5369057;26;20004;-68
2024/04/16 10:00:57;;;;;;;12.80;6.45;;;7.80;99.90;;;;;;5375859;26;20015;-67
2024/04/16 10:03:26;;;;;;;6.68;4.57;;;7.80;99.90;;;;;;5387903;26;20390;-67
2024/04/16 10:05:53;;;;;;;6.13;2.13;;;7.80;99.90;;;;;;5381963;26;20004;-67
2024/04/16 10:08:21;;;;;;;4.05;1.40;;;7.60;99.90;;;;;;5355635;26;20327;-67
2024/04/16 10:10:49;;;;;;;2.75;1.65;;;7.50;99.90;;;;;;5361853;26;20015;-67
2024/04/16 10:13:15;;;;;;;2.00;1.67;;;7.50;99.90;;;;;;5355886;26;20044;-67
2024/04/16 10:15:43;;;;;;;6.65;1.98;;;7.70;99.90;;;;;;5382114;26;20000;-67
2024/04/16 10:18:11;;;;;;;6.07;2.72;;;8.00;99.90;;;;;;5367075;26;20013;-66
2024/04/16 10:20:47;;;;;;;6.18;2.10;;;8.40;99.90;;;;;;5361053;26;20000;-67
2024/04/16 10:23:16;;;;;;;6.03;2.00;;;;;;;;;;5360965;26;20487;-69
2024/04/16 10:25:48;;;;;;;4.70;2.03;;;9.10;99.90;;;;;;5356579;26;20016;-69
2024/04/16 10:28:25;;;;;;;2.57;1.80;;;9.50;99.90;;;;;;5361341;26;20018;-68
2024/04/16 10:30:59;;;;;;;3.13;1.70;;;9.50;99.90;;;;;;5388594;26;20051;-68
2024/04/16 10:33:25;;;;;;;3.40;1.70;;;9.00;99.90;;;;;;5370598;26;20455;-68
2024/04/16 10:35:53;;;;;;;3.08;1.63;;;8.70;99.90;;;;;;5351973;26;20347;-67
2024/04/16 10:38:19;;;;;;;2.88;1.50;;;8.40;99.90;;;;;;5364599;26;20073;-68
2024/04/16 10:40:54;;;;;;;3.13;1.63;;;8.50;99.90;;;;;;5369544;26;20006;-68
2024/04/16 10:43:23;;;;;;;2.38;1.92;;;8.70;99.90;;;;;;5363832;26;20462;-68
2024/04/16 10:45:49;;;;;;;2.95;1.88;;;9.00;99.90;;;;;;5380750;26;20008;-69
2024/04/16 10:48:17;;;;;;;5.00;2.15;;;9.10;99.90;;;;;;5376345;26;20524;-68
2024/04/16 10:50:45;;;;;;;4.88;2.40;;;9.00;99.90;;;;;;5367083;26;20012;-68
2024/04/16 10:53:13;;;;;;;3.35;2.08;;;8.90;99.90;;;;;;5356575;26;20000;-68
2024/04/16 10:55:41;;;;;;;3.65;2.10;;;8.70;99.90;;;;;;5360795;26;20368;-68
2024/04/16 10:58:09;;;;;;;4.78;2.20;;;8.60;99.90;;;;;;5378701;26;19996;-68
2024/04/16 11:00:35;;;;;;;3.47;2.42;;;8.60;99.90;;;;;;5372504;26;20013;-69
2024/04/16 11:03:01;;;;;;;3.67;2.90;;;8.60;99.90;;;;;;5348254;26;20312;-68
2024/04/16 11:05:26;;;;;;;5.15;3.58;;;8.40;99.90;;;;;;5376015;26;19996;-68
2024/04/16 11:07:52;;;;;;;6.32;3.75;;;8.00;99.90;;;;;;5360557;26;19993;-68
2024/04/16 11:10:18;;;;;;;4.65;3.58;;;7.80;99.90;;;;;;5347548;26;20339;-68
2024/04/16 11:12:44;;;;;;;5.15;3.17;;;7.80;99.90;;;;;;5353946;26;20398;-68
2024/04/16 11:15:09;;;;;;;5.28;3.53;;;7.90;99.90;;;;;;5378030;26;20069;-68
2024/04/16 11:17:35;;;;;;;4.75;3.78;;;7.80;99.90;;;;;;5372549;26;20000;-68
2024/04/16 11:20:02;;;;;;;5.57;3.75;;;7.90;99.90;;;;;;5377020;26;20095;-69
2024/04/16 11:22:29;;;;;;;4.85;3.95;;;7.90;99.90;;;;;;5363463;26;20017;-69
2024/04/16 11:24:55;;;;;;;5.30;4.00;;;7.90;99.90;;;;;;5355414;26;20351;-69
2024/04/16 11:27:22;;;;;;;5.90;4.13;;;7.90;99.90;;;;;;5375792;26;19996;-69
2024/04/16 11:29:49;;;;;;;6.65;4.93;;;7.70;99.90;;;;;;5364117;26;20325;-68
2024/04/16 11:32:15;;;;;;;5.63;4.20;;;7.60;99.90;;;;;;5354581;26;20036;-69
2024/04/16 11:34:43;;;;;;;5.22;4.20;;;7.50;99.90;;;;;;5373899;26;19997;-68
2024/04/16 11:37:09;;;;;;;5.00;4.25;;;7.60;99.90;;;;;;5416102;26;20487;-68
2024/04/16 11:39:38;;;;;;;5.60;4.13;;;7.60;99.90;;;;;;5371788;26;20038;-68
2024/04/16 11:42:05;;;;;;;4.97;4.10;;;7.50;99.90;;;;;;5362561;26;20000;-68
2024/04/16 11:44:33;;;;;;;8.93;5.20;;;7.60;99.90;;;;;;5360507;26;19992;-68
2024/04/16 11:46:59;;;;;;;6.47;4.88;;;7.60;99.90;;;;;;5368816;26;20006;-68
2024/04/16 11:49:25;;;;;;;6.05;4.18;;;7.50;99.90;;;;;;5361969;26;20008;-68
2024/04/16 11:51:51;;;;;;;5.28;4.10;;;7.50;99.90;;;;;;5351385;26;20368;-68
2024/04/16 11:54:16;;;;;;;7.47;4.80;;;7.50;99.90;;;;;;5374896;26;20000;-67
2024/04/16 11:56:42;;;;;;;5.80;4.20;;;7.40;99.90;;;;;;5374590;26;20012;-68
2024/04/16 11:59:07;;;;;;;7.40;5.20;;;7.40;99.90;;;;;;5361354;26;20038;-70
2024/04/16 12:01:33;;;;;;;7.05;5.20;;;7.40;99.90;;;;;;5376281;26;20046;-69
2024/04/16 12:03:58;;;;;;;7.07;5.35;;;7.30;99.90;;;;;;5379693;26;20000;-68
2024/04/16 12:06:24;;;;;;;8.52;5.97;;;7.30;99.90;;;;;;5347225;26;19996;-68
2024/04/16 12:08:50;;;;;;;8.48;5.50;;;7.20;99.90;;;;;;5372675;26;19996;-69
2024/04/16 12:11:15;;;;;;;8.98;5.55;;;7.20;99.90;;;;;;5374344;26;20036;-69
2024/04/16 12:13:41;;;;;;;7.13;5.60;;;7.30;99.50;;;;;;5357042;26;20019;-68
2024/04/16 12:16:06;;;;;;;7.05;5.68;;;7.30;99.90;;;;;;5380896;26;19992;-68
2024/04/16 12:18:32;;;;;;;7.07;5.45;;;7.40;97.50;;;;;;5381576;26;19992;-68
2024/04/16 12:20:57;;;;;;;6.15;5.20;;;7.60;94.10;;;;;;5372548;26;20327;-66
2024/04/16 12:23:23;;;;;;;7.03;5.20;;;7.70;79.40;;;;;;5374987;26;20023;-66
2024/04/16 12:25:49;;;;;;;7.45;5.72;;;7.90;74.40;;;;;;5380966;26;20007;-65
2024/04/16 12:28:14;;;;;;;8.18;5.50;;;7.80;59.00;;;;;;5414857;26;20068;-69
2024/04/16 12:30:40;;;;;;;6.47;5.20;;;7.70;59.20;;;;;;5416449;26;20004;-67
2024/04/16 12:33:05;;;;;;;7.57;5.32;;;7.70;71.70;;;;;;5392380;26;19999;-68
2024/04/16 12:35:32;;;;;;;5.72;5.07;;;7.60;63.40;;;;;;5403587;26;20012;-67
2024/04/16 12:37:57;;;;;;;6.20;4.85;;;7.50;52.60;;;;;;5359823;26;19996;-68
2024/04/16 12:40:23;;;;;;;6.03;4.70;;;7.60;60.80;;;;;;5380661;26;20003;-67
2024/04/16 12:42:49;;;;;;;5.53;4.45;;;7.60;61.80;;;;;;5357024;26;20005;-67
2024/04/16 12:45:14;;;;;;;5.82;5.10;;;7.70;58.70;;;;;;5347980;26;20336;-67
2024/04/16 12:47:40;;;;;;;5.32;4.47;;;7.90;41.10;;;;;;5373044;26;20335;-68
2024/04/16 12:50:06;;;;;;;5.63;5.00;;;8.00;37.20;;;;;;5360920;26;20462;-69